Lake Swannanoa, New Jersey
Current Conditions -  °F | °C
As of 3:53 AM on Saturday 22 Nov 2014 (Local Time) from KFWN Reporting Station
Clear Clear  
Wind Chill: 13°   Ceiling: Unl
Heat Index: 13°   Visibility: 10mi
Dew Point: 10°   Wind: 0mph
Humidity: 88%   Direction: NA
Pressure: 30.45"   Gusts: NA
Location:  41.0321°N, 74.5162°W
Report Text: KFWN 220853Z AUTO 00000KT 10SM CLR M11/M12 A3045 RMK AO2 SLP317 T11061122 58006
Loading
Personal Weather Stations






























Interactive Weather Map New forecast layout! Learn more

10-Day Weather Forecast

Advertisements
Track Severe Weather on mobile